PWSweather.com
Personal Weather Stations
Station Observations
KGAMARIE64
Piedmont Bend, Marietta, GA 30062

Piedmont BendMarietta, GA 30062

Lat: 33.995327, Lon: -84.491958

Elevation: 1125

Station Type: Davis Vantage Pro2 (Cabled)

http://www.ericboettner.com/weather

Latest ConditionsUpdated 3:30:01 PM EDT Sunday, May 27, 2018
Currently Today's Max Today's Min Today's Average
Temperature 80.7°F27.1°C 81.4°F27.4°C 67.4°F19.7°C 73.6°F23.1°C
Dew Point 70.0°F21.1°C 70.4°F21.3°C 65.0°F18.3°C 67.8°F19.9°C
Winds Calm Calm 1.2 mph WSW1.9 kmh WSW - 0.0 mph 0.0 kmh
Wind Gusts 1.2 mph1.9 kmh 3.5 mph5.6 kmh - -
Humidity 70% 93% 68% 83%
Pressure 31.09 in1052.8 mb 31.16 in1055.2 mb 31.09 in1052.8 mb -
Hour Temp Dew Point Humidity Winds Wind Gusts Pressure Precip Precip Rate Daily Precip Total
03:30 PM 80.7°F27.1°C 70.0°F21.1°C 70% Calm Calm 1.2 mph1.9 kmh 31.09 in1052.8 mb - 0.00 in0.0 mm 0.00 in0.0 mm
03:00 PM 79.6°F26.4°C 69.8°F21.0°C 72% Calm Calm -- 31.10 in1053.2 mb - 0.00 in0.0 mm 0.00 in0.0 mm
02:30 PM 79.2°F26.2°C 69.8°F21.0°C 73% Calm Calm 1.2 mph1.9 kmh 31.11 in1053.5 mb - 0.00 in0.0 mm 0.00 in0.0 mm
02:00 PM 79.1°F26.2°C 69.3°F20.7°C 72% Calm Calm -- 31.12 in1053.8 mb - 0.00 in0.0 mm 0.00 in0.0 mm
01:30 PM 79.7°F26.5°C 69.9°F21.1°C 72% Calm Calm 1.2 mph1.9 kmh 31.12 in1053.8 mb - 0.00 in0.0 mm 0.00 in0.0 mm
01:00 PM 80.7°F27.1°C 69.2°F20.7°C 68% Calm Calm -- 31.13 in1054.2 mb - 0.00 in0.0 mm 0.00 in0.0 mm
12:30 PM 81.4°F27.4°C 70.3°F21.3°C 69% Calm Calm 3.5 mph5.6 kmh 31.14 in1054.5 mb - 0.00 in0.0 mm 0.00 in0.0 mm
12:00 PM 80.8°F27.1°C 70.1°F21.2°C 70% Calm Calm 1.2 mph1.9 kmh 31.15 in1054.9 mb - 0.00 in0.0 mm 0.00 in0.0 mm
11:30 AM 80.3°F26.8°C 70.4°F21.3°C 72% Calm Calm -- 31.15 in1054.9 mb - 0.00 in0.0 mm 0.00 in0.0 mm
11:00 AM 79.8°F26.6°C 70.0°F21.1°C 72% Calm Calm 1.2 mph1.9 kmh 31.15 in1054.9 mb - 0.00 in0.0 mm 0.00 in0.0 mm
10:30 AM 77.8°F25.4°C 69.7°F20.9°C 76% Calm Calm 1.2 mph1.9 kmh 31.15 in1054.9 mb - 0.00 in0.0 mm 0.00 in0.0 mm
10:00 AM 75.8°F24.3°C 69.1°F20.6°C 80% 1.2 mph WSW1.9 kmh WSW 2.3 mph3.7 kmh 31.16 in1055.2 mb - 0.00 in0.0 mm 0.00 in0.0 mm
09:30 AM 73.1°F22.8°C 68.7°F20.4°C 86% Calm Calm 1.2 mph1.9 kmh 31.15 in1054.9 mb - 0.00 in0.0 mm 0.00 in0.0 mm
09:00 AM 71.8°F22.1°C 68.4°F20.2°C 89% Calm Calm -- 31.15 in1054.9 mb - 0.00 in0.0 mm 0.00 in0.0 mm
08:30 AM 70.8°F21.6°C 68.4°F20.2°C 92% Calm Calm 1.2 mph1.9 kmh 31.15 in1054.9 mb - 0.00 in0.0 mm 0.00 in0.0 mm
08:00 AM 69.5°F20.8°C 67.4°F19.7°C 93% Calm Calm 1.2 mph1.9 kmh 31.15 in1054.9 mb - 0.00 in0.0 mm 0.00 in0.0 mm
07:30 AM 68.3°F20.2°C 66.2°F19.0°C 93% Calm Calm -- 31.15 in1054.9 mb - 0.00 in0.0 mm 0.00 in0.0 mm
07:00 AM 67.6°F19.8°C 65.2°F18.4°C 92% Calm Calm -- 31.14 in1054.5 mb - 0.00 in0.0 mm 0.00 in0.0 mm
06:30 AM 67.4°F19.7°C 65.0°F18.3°C 92% Calm Calm -- 31.14 in1054.5 mb - 0.00 in0.0 mm 0.00 in0.0 mm
06:00 AM 67.5°F19.7°C 65.1°F18.4°C 92% Calm Calm -- 31.13 in1054.2 mb - 0.00 in0.0 mm 0.00 in0.0 mm
05:30 AM 67.8°F19.9°C 65.4°F18.6°C 92% Calm Calm -- 31.12 in1053.8 mb - 0.00 in0.0 mm 0.00 in0.0 mm
05:00 AM 68.0°F20.0°C 65.3°F18.5°C 91% Calm Calm -- 31.11 in1053.5 mb - 0.00 in0.0 mm 0.00 in0.0 mm
04:30 AM 68.5°F20.3°C 65.8°F18.8°C 91% Calm Calm -- 31.11 in1053.5 mb - 0.00 in0.0 mm 0.00 in0.0 mm
04:00 AM 69.0°F20.6°C 65.9°F18.8°C 90% Calm Calm -- 31.11 in1053.5 mb - 0.00 in0.0 mm 0.00 in0.0 mm
03:30 AM 69.4°F20.8°C 66.0°F18.9°C 89% Calm Calm -- 31.11 in1053.5 mb - 0.00 in0.0 mm 0.00 in0.0 mm
03:00 AM 69.9°F21.1°C 66.2°F19.0°C 88% Calm Calm -- 31.11 in1053.5 mb - 0.00 in0.0 mm 0.00 in0.0 mm
02:30 AM 70.6°F21.4°C 66.5°F19.2°C 87% Calm Calm -- 31.11 in1053.5 mb - 0.00 in0.0 mm 0.00 in0.0 mm
02:00 AM 71.0°F21.7°C 66.6°F19.2°C 86% Calm Calm -- 31.11 in1053.5 mb - 0.00 in0.0 mm 0.00 in0.0 mm
01:30 AM 71.8°F22.1°C 67.0°F19.4°C 85% Calm Calm -- 31.11 in1053.5 mb - 0.00 in0.0 mm 0.00 in0.0 mm
01:00 AM 72.4°F22.4°C 67.3°F19.6°C 84% Calm Calm -- 31.12 in1053.8 mb - 0.00 in0.0 mm 0.00 in0.0 mm
12:30 AM 72.6°F22.6°C 67.8°F19.9°C 85% Calm Calm -- 31.13 in1054.2 mb - 0.00 in0.0 mm 0.00 in0.0 mm
12:00 AM 72.4°F22.4°C 68.3°F20.2°C 87% Calm Calm -- 31.14 in1054.5 mb - 0.00 in0.0 mm 0.00 in0.0 mm